createdAt,value
2019-03-06T00:01:49.378Z,99.90
2019-03-06T00:03:52.978Z,99.90
2019-03-06T00:05:57.470Z,99.90
2019-03-06T00:08:02.121Z,99.90
2019-03-06T00:10:23.824Z,99.90
2019-03-06T00:12:27.464Z,99.90
2019-03-06T00:14:30.929Z,99.90
2019-03-06T00:16:34.470Z,99.90
2019-03-06T00:18:38.014Z,99.90
2019-03-06T00:20:41.543Z,99.90
2019-03-06T00:22:45.377Z,99.90
2019-03-06T00:24:49.024Z,99.90
2019-03-06T00:26:52.873Z,99.90
2019-03-06T00:28:56.544Z,99.90
2019-03-06T00:31:00.184Z,99.90
2019-03-06T00:33:03.724Z,99.90
2019-03-06T00:35:10.241Z,99.90
2019-03-06T00:37:13.890Z,99.90
2019-03-06T00:39:17.761Z,99.90
2019-03-06T00:41:23.965Z,99.90
2019-03-06T00:43:27.509Z,99.90
2019-03-06T00:45:31.925Z,99.90
2019-03-06T00:47:35.465Z,99.90
2019-03-06T00:49:39.248Z,99.90
2019-03-06T00:51:42.746Z,99.90
2019-03-06T00:53:46.449Z,99.90
2019-03-06T00:55:49.996Z,99.80
2019-03-06T00:57:53.829Z,99.70
2019-03-06T00:59:57.372Z,99.80
2019-03-06T01:02:01.078Z,99.70
2019-03-06T01:04:04.853Z,99.60
2019-03-06T01:06:08.692Z,99.30
2019-03-06T01:08:12.404Z,99.50
2019-03-06T01:10:16.410Z,99.30
2019-03-06T01:12:19.949Z,99.30
2019-03-06T01:14:23.560Z,99.20
2019-03-06T01:16:27.104Z,99.20
2019-03-06T01:18:30.986Z,99.10
2019-03-06T01:20:34.513Z,99.00
2019-03-06T01:22:38.125Z,99.00
2019-03-06T01:24:41.760Z,99.00
2019-03-06T01:26:45.631Z,99.00
2019-03-06T01:28:49.224Z,99.00
2019-03-06T01:30:53.617Z,98.90
2019-03-06T01:33:11.117Z,98.80
2019-03-06T01:35:16.608Z,98.70
2019-03-06T01:37:22.148Z,98.80
2019-03-06T01:39:43.528Z,98.90
2019-03-06T01:41:57.410Z,98.90
2019-03-06T01:44:08.262Z,99.10
2019-03-06T01:46:11.804Z,99.10
2019-03-06T01:48:15.348Z,99.30
2019-03-06T01:50:18.914Z,99.00
2019-03-06T01:52:23.172Z,99.00
2019-03-06T01:54:26.976Z,99.00
2019-03-06T01:56:30.880Z,99.10
2019-03-06T01:58:34.464Z,99.00
2019-03-06T02:00:39.008Z,99.00
2019-03-06T02:02:42.977Z,99.00
2019-03-06T02:04:46.784Z,98.90
2019-03-06T02:06:50.320Z,98.90
2019-03-06T02:08:53.964Z,98.90
2019-03-06T02:10:58.276Z,98.90
2019-03-06T02:13:02.093Z,98.90
2019-03-06T02:15:09.298Z,98.90
2019-03-06T02:17:12.930Z,98.80
2019-03-06T02:19:16.465Z,98.70
2019-03-06T02:21:20.192Z,98.70
2019-03-06T02:23:24.096Z,98.60
2019-03-06T02:25:28.192Z,98.70
2019-03-06T02:27:31.840Z,98.50
2019-03-06T02:29:35.577Z,98.40
2019-03-06T02:31:39.118Z,98.30
2019-03-06T02:33:42.664Z,98.30
2019-03-06T02:35:46.192Z,98.20
2019-03-06T02:37:49.653Z,98.20
2019-03-06T02:39:53.185Z,98.10
2019-03-06T02:41:56.756Z,98.20
2019-03-06T02:44:00.293Z,98.20
2019-03-06T02:46:03.933Z,98.10
2019-03-06T02:48:07.548Z,98.20
2019-03-06T02:50:14.073Z,98.10
2019-03-06T02:52:17.806Z,98.10
2019-03-06T02:54:21.349Z,98.00
2019-03-06T02:56:24.880Z,97.90
2019-03-06T02:58:35.885Z,98.00
2019-03-06T03:00:41.445Z,98.00
2019-03-06T03:02:46.890Z,97.80
2019-03-06T03:04:54.700Z,97.90
2019-03-06T03:06:59.973Z,98.00
2019-03-06T03:09:05.229Z,97.90
2019-03-06T03:11:08.873Z,97.90
2019-03-06T03:13:12.429Z,98.00
2019-03-06T03:15:16.321Z,98.10
2019-03-06T03:17:19.956Z,98.20
2019-03-06T03:19:23.719Z,98.30
2019-03-06T03:21:27.221Z,98.60
2019-03-06T03:23:30.753Z,98.80
2019-03-06T03:25:34.291Z,98.90
2019-03-06T03:27:37.933Z,99.20
2019-03-06T03:29:41.577Z,99.40
2019-03-06T03:31:45.222Z,99.50
2019-03-06T03:33:48.772Z,99.70
2019-03-06T03:35:52.390Z,99.90
2019-03-06T03:37:55.929Z,99.90
2019-03-06T03:39:59.392Z,99.90
2019-03-06T03:42:03.497Z,99.90
2019-03-06T03:44:07.343Z,99.90
2019-03-06T03:46:10.897Z,99.90
2019-03-06T03:48:14.459Z,99.90
2019-03-06T03:50:18.112Z,99.90
2019-03-06T03:52:21.648Z,99.90
2019-03-06T03:54:25.166Z,99.90
2019-03-06T03:56:28.897Z,99.90
2019-03-06T03:58:32.438Z,99.90
2019-03-06T04:00:36.037Z,99.90
2019-03-06T04:02:39.922Z,99.90
2019-03-06T04:04:43.934Z,99.90
2019-03-06T04:06:47.469Z,99.90
2019-03-06T04:08:51.001Z,99.90
2019-03-06T04:10:54.545Z,99.90
2019-03-06T04:12:58.088Z,99.90
2019-03-06T04:15:01.718Z,99.90
2019-03-06T04:17:05.248Z,99.90
2019-03-06T04:19:08.864Z,99.90
2019-03-06T04:21:12.332Z,99.90
2019-03-06T04:23:16.205Z,99.90
2019-03-06T04:25:19.938Z,99.90
2019-03-06T04:27:23.817Z,99.90
2019-03-06T04:29:27.709Z,99.90
2019-03-06T04:31:31.245Z,99.90
2019-03-06T04:33:35.114Z,99.90
2019-03-06T04:35:38.715Z,99.90
2019-03-06T04:37:42.589Z,99.90
2019-03-06T04:39:46.124Z,99.90
2019-03-06T04:41:49.921Z,99.90
2019-03-06T04:43:53.456Z,99.90
2019-03-06T04:45:57.066Z,99.90
2019-03-06T04:48:00.912Z,99.90
2019-03-06T04:50:07.713Z,99.90
2019-03-06T04:52:11.315Z,99.90
2019-03-06T04:54:14.785Z,99.90
2019-03-06T04:56:18.320Z,99.90
2019-03-06T04:58:22.149Z,99.90
2019-03-06T05:00:25.684Z,99.90
2019-03-06T05:02:29.324Z,99.90
2019-03-06T05:04:32.955Z,99.90
2019-03-06T05:06:36.612Z,99.90
2019-03-06T05:08:40.470Z,99.90
2019-03-06T05:10:44.004Z,99.90
2019-03-06T05:12:47.769Z,99.90
2019-03-06T05:14:51.601Z,99.90
2019-03-06T05:16:56.884Z,99.90
2019-03-06T05:19:01.281Z,99.90
2019-03-06T05:21:04.911Z,99.90
2019-03-06T05:23:08.551Z,99.90
2019-03-06T05:25:12.352Z,99.90
2019-03-06T05:27:16.196Z,99.90
2019-03-06T05:29:19.729Z,99.90
2019-03-06T05:31:23.267Z,99.90
2019-03-06T05:33:28.695Z,99.90
2019-03-06T05:35:47.136Z,99.90
2019-03-06T05:38:06.175Z,99.90
2019-03-06T05:40:09.735Z,99.90
2019-03-06T05:42:13.608Z,99.90
2019-03-06T05:44:17.295Z,99.90
2019-03-06T05:46:21.652Z,99.90
2019-03-06T05:48:25.192Z,99.90
2019-03-06T05:50:28.733Z,99.90
2019-03-06T05:52:32.277Z,99.50
2019-03-06T05:54:35.920Z,99.00
2019-03-06T05:56:39.694Z,98.50
2019-03-06T05:58:43.236Z,97.80
2019-03-06T06:00:47.064Z,96.50
2019-03-06T06:02:50.606Z,95.70
2019-03-06T06:04:54.140Z,95.10
2019-03-06T06:06:58.965Z,93.50
2019-03-06T06:09:05.012Z,92.50
2019-03-06T06:11:08.849Z,91.70
2019-03-06T06:13:12.558Z,91.40
2019-03-06T06:15:16.537Z,90.60
2019-03-06T06:17:20.077Z,89.20
2019-03-06T06:19:23.613Z,86.60
2019-03-06T06:21:37.964Z,85.00
2019-03-06T06:23:46.205Z,84.00
2019-03-06T06:25:50.100Z,82.80
2019-03-06T06:27:53.672Z,81.80
2019-03-06T06:29:57.244Z,78.80
2019-03-06T06:32:00.793Z,78.20
2019-03-06T06:34:04.464Z,76.90
2019-03-06T06:36:08.381Z,75.70
2019-03-06T06:38:12.173Z,77.00
2019-03-06T06:40:15.847Z,78.50
2019-03-06T06:42:19.672Z,80.10
2019-03-06T06:44:23.209Z,81.70
2019-03-06T06:46:26.793Z,82.80
2019-03-06T06:48:30.530Z,82.00
2019-03-06T06:50:34.060Z,81.00
2019-03-06T06:53:15.837Z,79.90
2019-03-06T06:55:28.577Z,78.20
2019-03-06T06:57:53.489Z,76.10
2019-03-06T07:00:29.845Z,73.30
2019-03-06T07:02:56.627Z,71.80
2019-03-06T07:05:19.981Z,70.20
2019-03-06T07:07:25.505Z,69.50
2019-03-06T07:09:36.429Z,68.50
2019-03-06T07:11:50.570Z,68.50
2019-03-06T07:13:58.723Z,67.30
2019-03-06T07:16:13.194Z,65.40
2019-03-06T07:18:21.253Z,64.40
2019-03-06T07:20:26.362Z,61.60
2019-03-06T07:22:34.363Z,60.60
2019-03-06T07:24:51.448Z,59.40
2019-03-06T07:27:08.869Z,58.80
2019-03-06T07:29:26.369Z,61.00
2019-03-06T07:31:37.564Z,61.00
2019-03-06T07:33:46.468Z,60.00
2019-03-06T07:36:05.456Z,59.90
2019-03-06T07:38:09.657Z,59.00
2019-03-06T07:40:14.168Z,57.90
2019-03-06T07:42:25.804Z,57.90
2019-03-06T07:44:36.810Z,56.70
2019-03-06T07:46:47.752Z,55.00
2019-03-06T07:49:08.950Z,54.70
2019-03-06T07:51:26.797Z,54.10
2019-03-06T07:53:52.432Z,55.00
2019-03-06T07:55:57.916Z,54.70
2019-03-06T07:58:38.005Z,54.60
2019-03-06T08:00:41.620Z,55.20
2019-03-06T08:02:57.231Z,55.00
2019-03-06T08:05:00.853Z,56.20
2019-03-06T08:07:09.105Z,55.90
2019-03-06T08:09:17.704Z,55.30
2019-03-06T08:11:35.048Z,55.20
2019-03-06T08:13:40.460Z,55.70
2019-03-06T08:15:45.575Z,54.80
2019-03-06T08:17:56.536Z,56.40
2019-03-06T08:20:13.766Z,56.20
2019-03-06T08:22:35.193Z,56.00
2019-03-06T08:24:40.373Z,56.10
2019-03-06T08:26:44.284Z,56.10
2019-03-06T08:28:47.832Z,55.00
2019-03-06T08:31:08.104Z,55.50
2019-03-06T08:33:18.093Z,55.60
2019-03-06T08:35:18.033Z,55.70
2019-03-06T08:37:21.580Z,55.00
2019-03-06T08:39:25.592Z,55.20
2019-03-06T08:41:29.241Z,56.80
2019-03-06T08:43:33.008Z,57.70
2019-03-06T08:45:44.613Z,58.30
2019-03-06T08:48:01.833Z,57.80
2019-03-06T08:50:17.744Z,57.80
2019-03-06T08:52:25.776Z,58.70
2019-03-06T08:54:33.660Z,59.40
2019-03-06T08:56:47.808Z,58.80
2019-03-06T08:58:56.257Z,58.00
2019-03-06T09:01:07.116Z,57.80
2019-03-06T09:03:21.205Z,58.90
2019-03-06T09:05:30.950Z,61.70
2019-03-06T09:07:35.953Z,64.50
2019-03-06T09:09:46.880Z,66.70
2019-03-06T09:11:58.153Z,67.80
2019-03-06T09:14:15.173Z,69.30
2019-03-06T09:16:23.545Z,71.50
2019-03-06T09:18:31.498Z,70.70
2019-03-06T09:20:49.220Z,71.80
2019-03-06T09:23:13.187Z,74.20
2019-03-06T09:25:21.240Z,74.00
2019-03-06T09:27:32.798Z,74.20
2019-03-06T09:29:38.144Z,74.20
2019-03-06T09:31:43.341Z,75.20
2019-03-06T09:34:03.469Z,75.50
2019-03-06T09:36:13.683Z,73.50
2019-03-06T09:38:35.044Z,72.30
2019-03-06T09:40:56.497Z,72.10
2019-03-06T09:43:10.412Z,70.00
2019-03-06T09:45:21.709Z,69.70
2019-03-06T09:47:32.529Z,68.70
2019-03-06T09:49:49.901Z,69.10
2019-03-06T09:52:04.196Z,69.00
2019-03-06T09:54:15.708Z,68.40
2019-03-06T09:56:21.421Z,69.30
2019-03-06T09:58:44.294Z,67.30
2019-03-06T10:01:04.417Z,64.90
2019-03-06T10:03:24.952Z,65.30
2019-03-06T10:05:42.025Z,65.30
2019-03-06T10:07:47.245Z,63.90
2019-03-06T10:10:04.830Z,64.40
2019-03-06T10:12:13.065Z,66.10
2019-03-06T10:14:24.213Z,65.40
2019-03-06T10:16:29.750Z,64.70
2019-03-06T10:18:35.032Z,65.00
2019-03-06T10:20:39.249Z,65.70
2019-03-06T10:22:42.864Z,64.70
2019-03-06T10:24:46.406Z,63.60
2019-03-06T10:26:49.988Z,63.10
2019-03-06T10:28:53.520Z,64.30
2019-03-06T10:31:02.365Z,65.80
2019-03-06T10:33:02.329Z,63.90
2019-03-06T10:35:06.810Z,61.80
2019-03-06T10:37:10.415Z,60.60
2019-03-06T10:39:16.285Z,60.10
2019-03-06T10:41:19.846Z,60.50
2019-03-06T10:43:23.850Z,58.40
2019-03-06T10:45:27.356Z,57.80
2019-03-06T10:47:30.997Z,58.20
2019-03-06T10:49:34.785Z,58.30
2019-03-06T10:51:38.396Z,57.90
2019-03-06T10:53:42.791Z,57.20
2019-03-06T10:55:47.549Z,57.90
2019-03-06T10:57:51.483Z,57.30
2019-03-06T10:59:55.288Z,56.10
2019-03-06T11:01:58.824Z,54.70
2019-03-06T11:04:06.729Z,52.80
2019-03-06T11:06:11.493Z,52.50
2019-03-06T11:08:16.177Z,51.60
2019-03-06T11:10:23.656Z,51.40
2019-03-06T11:12:25.522Z,51.00
2019-03-06T11:14:29.204Z,50.50
2019-03-06T11:16:32.784Z,51.00
2019-03-06T11:18:37.944Z,50.60
2019-03-06T11:20:42.055Z,51.20
2019-03-06T11:22:45.671Z,52.90
2019-03-06T11:24:49.316Z,53.30
2019-03-06T11:26:54.067Z,52.60
2019-03-06T11:28:57.637Z,52.80
2019-03-06T11:31:01.508Z,51.40
2019-03-06T11:33:06.792Z,52.40
2019-03-06T11:35:13.548Z,52.80
2019-03-06T11:37:17.094Z,52.80
2019-03-06T11:39:20.993Z,51.40
2019-03-06T11:41:24.537Z,51.50
2019-03-06T11:43:29.197Z,50.30
2019-03-06T11:45:33.065Z,50.00
2019-03-06T11:47:36.604Z,49.40
2019-03-06T11:49:40.522Z,48.70
2019-03-06T11:51:44.053Z,48.20
2019-03-06T11:53:47.693Z,48.90
2019-03-06T11:55:51.625Z,48.10
2019-03-06T11:57:55.388Z,46.90
2019-03-06T11:59:59.176Z,47.50
2019-03-06T12:02:03.052Z,48.30
2019-03-06T12:04:06.861Z,48.10
2019-03-06T12:06:11.424Z,47.70
2019-03-06T12:08:17.505Z,48.90
2019-03-06T12:10:21.481Z,49.10
2019-03-06T12:12:26.024Z,49.30
2019-03-06T12:14:29.904Z,48.80
2019-03-06T12:16:41.674Z,48.70
2019-03-06T12:18:40.385Z,49.30
2019-03-06T12:20:44.172Z,49.60
2019-03-06T12:22:48.320Z,50.00
2019-03-06T12:24:52.077Z,50.50
2019-03-06T12:26:55.954Z,51.20
2019-03-06T12:28:59.828Z,52.10
2019-03-06T12:31:05.041Z,52.80
2019-03-06T12:33:09.321Z,52.90
2019-03-06T12:35:17.371Z,52.50
2019-03-06T12:37:20.927Z,52.10
2019-03-06T12:39:24.982Z,52.50
2019-03-06T12:41:29.457Z,51.50
2019-03-06T12:43:33.610Z,50.80
2019-03-06T12:45:38.083Z,50.50
2019-03-06T12:47:42.320Z,50.70
2019-03-06T12:49:45.901Z,49.80
2019-03-06T12:51:54.418Z,49.70
2019-03-06T12:53:54.708Z,48.30
2019-03-06T12:55:58.257Z,49.10
2019-03-06T12:58:01.825Z,49.40
2019-03-06T13:00:19.484Z,49.70
2019-03-06T13:02:23.906Z,50.20
2019-03-06T13:04:27.548Z,48.90
2019-03-06T13:06:31.158Z,49.20
2019-03-06T13:08:35.009Z,50.00
2019-03-06T13:10:38.784Z,49.60
2019-03-06T13:12:42.899Z,49.30
2019-03-06T13:14:46.435Z,48.30
2019-03-06T13:16:50.117Z,48.10
2019-03-06T13:18:54.048Z,47.90
2019-03-06T13:20:57.926Z,48.50
2019-03-06T13:23:01.601Z,48.90
2019-03-06T13:25:08.752Z,48.30
2019-03-06T13:27:12.546Z,48.00
2019-03-06T13:29:16.080Z,48.10
2019-03-06T13:31:19.627Z,48.20
2019-03-06T13:33:31.001Z,48.00
2019-03-06T13:35:37.318Z,47.50
2019-03-06T13:37:40.873Z,48.30
2019-03-06T13:39:44.734Z,48.20
2019-03-06T13:41:48.268Z,47.70
2019-03-06T13:43:52.349Z,48.20
2019-03-06T13:45:55.895Z,48.40
2019-03-06T13:47:59.436Z,48.60
2019-03-06T13:50:03.830Z,48.80
2019-03-06T13:52:07.376Z,49.10
2019-03-06T13:54:10.992Z,50.10
2019-03-06T13:56:14.853Z,49.60
2019-03-06T13:58:18.962Z,50.00
2019-03-06T14:00:23.616Z,49.80
2019-03-06T14:02:27.492Z,49.10
2019-03-06T14:04:31.527Z,49.30
2019-03-06T14:06:35.068Z,50.30
2019-03-06T14:08:38.612Z,51.50
2019-03-06T14:10:42.186Z,51.40
2019-03-06T14:12:45.729Z,50.80
2019-03-06T14:14:49.584Z,51.50
2019-03-06T14:16:53.202Z,51.80
2019-03-06T14:18:56.737Z,52.60
2019-03-06T14:21:00.693Z,51.20
2019-03-06T14:23:04.488Z,52.10
2019-03-06T14:25:10.072Z,53.60
2019-03-06T14:27:13.789Z,54.00
2019-03-06T14:29:17.666Z,54.70
2019-03-06T14:31:23.178Z,55.50
2019-03-06T14:33:26.803Z,54.40
2019-03-06T14:35:30.504Z,54.50
2019-03-06T14:37:34.565Z,54.10
2019-03-06T14:39:38.976Z,55.10
2019-03-06T14:41:43.013Z,54.90
2019-03-06T14:43:47.411Z,56.10
2019-03-06T14:45:51.464Z,57.10
2019-03-06T14:47:59.152Z,56.40
2019-03-06T14:50:00.475Z,56.00
2019-03-06T14:52:07.088Z,56.80
2019-03-06T14:54:09.600Z,57.10
2019-03-06T14:56:13.517Z,58.00
2019-03-06T14:58:17.934Z,57.60
2019-03-06T15:00:22.663Z,58.50
2019-03-06T15:02:26.273Z,59.20
2019-03-06T15:04:29.889Z,58.40
2019-03-06T15:06:33.757Z,56.10
2019-03-06T15:08:37.483Z,56.40
2019-03-06T15:10:43.275Z,56.30
2019-03-06T15:12:47.123Z,55.70
2019-03-06T15:14:50.766Z,56.10
2019-03-06T15:16:55.201Z,56.80
2019-03-06T15:18:59.009Z,56.80
2019-03-06T15:21:02.631Z,56.80
2019-03-06T15:23:06.528Z,57.30
2019-03-06T15:25:15.885Z,57.10
2019-03-06T15:27:19.493Z,57.20
2019-03-06T15:29:23.497Z,57.00
2019-03-06T15:31:27.421Z,56.70
2019-03-06T15:33:31.380Z,57.00
2019-03-06T15:35:35.052Z,56.90
2019-03-06T15:37:39.020Z,57.60
2019-03-06T15:39:48.531Z,57.40
2019-03-06T15:41:48.393Z,57.70
2019-03-06T15:43:51.980Z,58.40
2019-03-06T15:45:55.897Z,58.90
2019-03-06T15:47:59.874Z,59.00
2019-03-06T15:50:03.745Z,59.40
2019-03-06T15:52:08.821Z,60.00
2019-03-06T15:54:13.497Z,61.20
2019-03-06T15:56:17.309Z,60.80
2019-03-06T15:58:21.024Z,61.40
2019-03-06T16:00:30.764Z,61.30
2019-03-06T16:02:34.956Z,61.60
2019-03-06T16:04:38.777Z,62.00
2019-03-06T16:06:42.320Z,63.70
2019-03-06T16:08:47.093Z,63.10
2019-03-06T16:10:50.958Z,63.70
2019-03-06T16:12:54.926Z,64.30
2019-03-06T16:14:59.009Z,65.00
2019-03-06T16:17:02.540Z,65.70
2019-03-06T16:19:06.204Z,66.20
2019-03-06T16:21:10.320Z,66.60
2019-03-06T16:23:15.117Z,67.00
2019-03-06T16:25:19.140Z,67.70
2019-03-06T16:27:23.637Z,68.20
2019-03-06T16:29:27.462Z,68.80
2019-03-06T16:31:31.001Z,69.20
2019-03-06T16:33:34.709Z,69.60
2019-03-06T16:35:39.457Z,69.90
2019-03-06T16:37:43.489Z,70.20
2019-03-06T16:39:47.117Z,70.50
2019-03-06T16:41:51.475Z,70.80
2019-03-06T16:43:55.433Z,71.40
2019-03-06T16:45:59.116Z,71.90
2019-03-06T16:48:03.036Z,72.40
2019-03-06T16:50:14.411Z,73.00
2019-03-06T16:52:15.288Z,73.20
2019-03-06T16:54:19.137Z,73.60
2019-03-06T16:56:23.264Z,74.10
2019-03-06T16:58:27.248Z,74.80
2019-03-06T17:00:34.737Z,75.40
2019-03-06T17:02:38.276Z,75.80
2019-03-06T17:04:41.925Z,76.30
2019-03-06T17:06:45.478Z,76.60
2019-03-06T17:08:50.129Z,76.80
2019-03-06T17:10:53.977Z,77.00
2019-03-06T17:12:58.421Z,77.50
2019-03-06T17:15:02.057Z,77.90
2019-03-06T17:17:08.057Z,78.10
2019-03-06T17:19:11.705Z,78.10
2019-03-06T17:21:16.545Z,78.30
2019-03-06T17:23:20.125Z,78.70
2019-03-06T17:25:27.405Z,79.10
2019-03-06T17:27:31.472Z,79.50
2019-03-06T17:29:36.177Z,79.90
2019-03-06T17:31:40.190Z,80.00
2019-03-06T17:33:45.333Z,80.30
2019-03-06T17:35:49.310Z,81.40
2019-03-06T17:37:53.434Z,80.70
2019-03-06T17:39:58.246Z,81.20
2019-03-06T17:42:03.431Z,81.30
2019-03-06T17:44:07.463Z,81.60
2019-03-06T17:46:12.604Z,81.70
2019-03-06T17:48:17.871Z,82.00
2019-03-06T17:50:23.720Z,82.20
2019-03-06T17:52:29.153Z,82.40
2019-03-06T17:54:33.649Z,82.80
2019-03-06T17:56:38.912Z,83.10
2019-03-06T17:58:42.908Z,83.50
2019-03-06T18:00:48.835Z,83.90
2019-03-06T18:02:57.129Z,84.20
2019-03-06T18:05:02.749Z,84.40
2019-03-06T18:07:08.800Z,84.80
2019-03-06T18:09:12.802Z,85.00
2019-03-06T18:11:18.250Z,85.40
2019-03-06T18:13:22.072Z,85.80
2019-03-06T18:15:26.056Z,86.20
2019-03-06T18:17:29.773Z,86.40
2019-03-06T18:19:33.471Z,86.90
2019-03-06T18:21:37.813Z,87.30
2019-03-06T18:23:41.645Z,87.30
2019-03-06T18:25:45.189Z,87.40
2019-03-06T18:27:48.736Z,87.50
2019-03-06T18:29:52.273Z,87.40
2019-03-06T18:31:56.166Z,87.40
2019-03-06T18:33:59.725Z,87.20
2019-03-06T18:36:03.857Z,87.20
2019-03-06T18:38:08.373Z,87.20
2019-03-06T18:40:17.942Z,87.20
2019-03-06T18:42:21.834Z,87.40
2019-03-06T18:44:27.061Z,87.60
2019-03-06T18:46:30.724Z,87.80
2019-03-06T18:48:35.054Z,88.00
2019-03-06T18:50:39.052Z,88.20
2019-03-06T18:52:43.452Z,88.60
2019-03-06T18:54:47.521Z,88.70
2019-03-06T18:56:51.061Z,88.90
2019-03-06T18:58:54.616Z,89.00
2019-03-06T19:00:59.855Z,89.10
2019-03-06T19:03:03.442Z,89.10
2019-03-06T19:05:08.826Z,89.20
2019-03-06T19:07:12.372Z,89.20
2019-03-06T19:09:16.362Z,89.20
2019-03-06T19:11:20.526Z,89.20
2019-03-06T19:13:24.840Z,89.40
2019-03-06T19:15:29.324Z,89.50
2019-03-06T19:17:32.868Z,89.50
2019-03-06T19:19:37.304Z,89.60
2019-03-06T19:21:41.935Z,89.80
2019-03-06T19:23:45.949Z,90.00
2019-03-06T19:25:51.381Z,90.10
2019-03-06T19:27:55.318Z,90.20
2019-03-06T19:29:58.857Z,90.30
2019-03-06T19:32:03.309Z,90.30
2019-03-06T19:34:07.212Z,90.20
2019-03-06T19:36:11.341Z,90.20
2019-03-06T19:38:15.320Z,90.30
2019-03-06T19:40:19.738Z,90.30
2019-03-06T19:42:23.394Z,90.40
2019-03-06T19:44:28.065Z,90.30
2019-03-06T19:46:31.603Z,90.40
2019-03-06T19:48:35.276Z,90.40
2019-03-06T19:50:39.398Z,90.30
2019-03-06T19:52:43.987Z,90.30
2019-03-06T19:54:50.256Z,90.30
2019-03-06T19:56:55.052Z,90.40
2019-03-06T19:59:02.878Z,90.40
2019-03-06T20:01:07.285Z,90.40
2019-03-06T20:03:11.501Z,90.50
2019-03-06T20:05:15.412Z,90.50
2019-03-06T20:07:19.570Z,90.60
2019-03-06T20:09:26.331Z,90.60
2019-03-06T20:11:30.502Z,90.70
2019-03-06T20:13:34.920Z,90.70
2019-03-06T20:15:40.063Z,90.70
2019-03-06T20:17:43.709Z,90.80
2019-03-06T20:19:49.220Z,90.80
2019-03-06T20:21:52.448Z,91.00
2019-03-06T20:23:55.979Z,91.10
2019-03-06T20:25:59.792Z,91.20
2019-03-06T20:28:03.773Z,91.30
2019-03-06T20:30:13.837Z,91.30
2019-03-06T20:32:17.701Z,91.50
2019-03-06T20:34:21.240Z,91.60
2019-03-06T20:36:24.991Z,91.80
2019-03-06T20:38:29.289Z,91.90
2019-03-06T20:40:33.652Z,91.90
2019-03-06T20:42:37.298Z,91.90
2019-03-06T20:44:41.649Z,91.90
2019-03-06T20:46:45.477Z,91.70
2019-03-06T20:48:49.176Z,91.60
2019-03-06T20:50:53.041Z,91.50
2019-03-06T20:52:56.660Z,91.30
2019-03-06T20:55:00.567Z,91.20
2019-03-06T20:57:04.100Z,91.20
2019-03-06T20:59:08.521Z,91.10
2019-03-06T21:01:12.353Z,91.10
2019-03-06T21:03:15.892Z,91.10
2019-03-06T21:05:19.930Z,91.00
2019-03-06T21:07:23.843Z,91.40
2019-03-06T21:09:27.543Z,91.00
2019-03-06T21:11:31.370Z,91.00
2019-03-06T21:13:34.901Z,90.90
2019-03-06T21:15:38.441Z,90.80
2019-03-06T21:17:42.309Z,90.80
2019-03-06T21:19:45.850Z,90.60
2019-03-06T21:21:49.386Z,90.50
2019-03-06T21:23:52.926Z,90.40
2019-03-06T21:25:56.578Z,90.30
2019-03-06T21:28:00.407Z,90.20
2019-03-06T21:30:06.713Z,90.10
2019-03-06T21:32:10.248Z,90.10
2019-03-06T21:34:13.823Z,90.10
2019-03-06T21:36:18.255Z,90.10
2019-03-06T21:38:22.052Z,90.10
2019-03-06T21:40:25.756Z,90.10
2019-03-06T21:42:29.580Z,90.00
2019-03-06T21:44:33.126Z,90.00
2019-03-06T21:46:36.656Z,90.00
2019-03-06T21:48:40.504Z,90.00
2019-03-06T21:50:44.081Z,90.00
2019-03-06T21:52:48.869Z,90.00
2019-03-06T21:54:52.409Z,90.00
2019-03-06T21:56:56.050Z,89.90
2019-03-06T21:58:59.586Z,89.70
2019-03-06T22:01:03.125Z,89.70
2019-03-06T22:03:07.219Z,89.70
2019-03-06T22:05:10.820Z,89.60
2019-03-06T22:07:14.389Z,89.50
2019-03-06T22:09:18.513Z,89.30
2019-03-06T22:11:22.401Z,89.20
2019-03-06T22:13:26.241Z,89.10
2019-03-06T22:15:29.772Z,89.20
2019-03-06T22:17:33.335Z,89.10
2019-03-06T22:19:37.033Z,89.00
2019-03-06T22:21:40.924Z,88.90
2019-03-06T22:23:44.764Z,88.90
2019-03-06T22:25:48.972Z,88.80
2019-03-06T22:27:52.612Z,88.90
2019-03-06T22:29:56.517Z,89.10
2019-03-06T22:32:00.350Z,89.30
2019-03-06T22:34:04.157Z,89.20
2019-03-06T22:36:07.866Z,88.90
2019-03-06T22:38:11.469Z,88.70
2019-03-06T22:40:19.664Z,88.70
2019-03-06T22:42:23.160Z,88.50
2019-03-06T22:44:26.908Z,88.40
2019-03-06T22:46:30.729Z,88.20
2019-03-06T22:48:34.356Z,88.10
2019-03-06T22:50:37.896Z,88.00
2019-03-06T22:52:42.033Z,87.90
2019-03-06T22:54:45.873Z,88.00
2019-03-06T22:56:49.401Z,88.80
2019-03-06T22:58:53.237Z,88.30
2019-03-06T23:01:00.554Z,88.40
2019-03-06T23:03:05.249Z,88.50
2019-03-06T23:05:09.356Z,88.50
2019-03-06T23:07:12.893Z,88.70
2019-03-06T23:09:17.756Z,88.70
2019-03-06T23:11:21.585Z,88.80
2019-03-06T23:13:25.456Z,88.90
2019-03-06T23:15:29.250Z,89.00
2019-03-06T23:17:33.205Z,88.70
2019-03-06T23:19:36.748Z,88.80
2019-03-06T23:21:40.588Z,89.50
2019-03-06T23:23:44.128Z,88.60
2019-03-06T23:25:47.994Z,88.60
2019-03-06T23:27:51.725Z,88.30
2019-03-06T23:29:55.597Z,88.20
2019-03-06T23:31:59.145Z,88.00
2019-03-06T23:34:02.676Z,87.80
2019-03-06T23:36:06.235Z,87.60
2019-03-06T23:38:09.966Z,88.40
2019-03-06T23:40:13.805Z,87.40
2019-03-06T23:42:17.897Z,87.20
2019-03-06T23:44:21.532Z,86.90
2019-03-06T23:46:26.199Z,87.10
2019-03-06T23:48:29.827Z,86.60
2019-03-06T23:50:33.364Z,86.70
2019-03-06T23:52:50.594Z,86.50
2019-03-06T23:54:54.203Z,86.50
2019-03-06T23:56:58.029Z,86.60
2019-03-06T23:59:01.784Z,86.50
